sensor_id;sensor_type;location;lat;lon;timestamp;P1;durP1;ratioP1;P2;durP2;ratioP2
18267;SDS011;9260;49.998;19.880;2022-08-30T00:07:37;236.97;;;95.13;;
18267;SDS011;9260;49.998;19.880;2022-08-30T00:17:41;236.27;;;90.37;;
18267;SDS011;9260;49.998;19.880;2022-08-30T00:27:46;232.10;;;91.60;;
18267;SDS011;9260;49.998;19.880;2022-08-30T00:37:50;239.07;;;90.60;;
18267;SDS011;9260;49.998;19.880;2022-08-30T00:47:55;228.40;;;89.67;;
18267;SDS011;9260;49.998;19.880;2022-08-30T00:58:01;235.37;;;93.83;;
18267;SDS011;9260;49.998;19.880;2022-08-30T01:08:09;227.97;;;89.43;;
18267;SDS011;9260;49.998;19.880;2022-08-30T01:18:13;234.10;;;89.80;;
18267;SDS011;9260;49.998;19.880;2022-08-30T01:28:23;230.10;;;90.90;;
18267;SDS011;9260;49.998;19.880;2022-08-30T01:38:29;232.17;;;91.63;;
18267;SDS011;9260;49.998;19.880;2022-08-30T01:48:38;230.47;;;91.83;;
18267;SDS011;9260;49.998;19.880;2022-08-30T01:58:54;237.20;;;94.60;;
18267;SDS011;9260;49.998;19.880;2022-08-30T02:09:04;231.70;;;90.27;;
18267;SDS011;9260;49.998;19.880;2022-08-30T02:19:08;228.97;;;89.03;;
18267;SDS011;9260;49.998;19.880;2022-08-30T02:29:16;224.63;;;84.50;;
18267;SDS011;9260;49.998;19.880;2022-08-30T02:39:20;230.10;;;88.03;;
18267;SDS011;9260;49.998;19.880;2022-08-30T02:49:25;239.30;;;93.07;;
18267;SDS011;9260;49.998;19.880;2022-08-30T02:59:36;227.10;;;86.27;;
18267;SDS011;9260;49.998;19.880;2022-08-30T03:09:45;230.87;;;88.13;;
18267;SDS011;9260;49.998;19.880;2022-08-30T03:19:49;224.83;;;85.80;;
18267;SDS011;9260;49.998;19.880;2022-08-30T03:29:54;227.67;;;83.80;;
18267;SDS011;9260;49.998;19.880;2022-08-30T03:39:57;228.10;;;87.30;;
18267;SDS011;9260;49.998;19.880;2022-08-30T03:50:04;222.00;;;83.83;;
18267;SDS011;9260;49.998;19.880;2022-08-30T04:00:10;227.73;;;84.93;;
18267;SDS011;9260;49.998;19.880;2022-08-30T04:10:16;225.33;;;87.70;;
18267;SDS011;9260;49.998;19.880;2022-08-30T04:20:21;226.37;;;86.63;;
18267;SDS011;9260;49.998;19.880;2022-08-30T04:30:26;232.27;;;88.00;;
18267;SDS011;9260;49.998;19.880;2022-08-30T04:40:30;227.80;;;87.27;;
18267;SDS011;9260;49.998;19.880;2022-08-30T04:50:35;230.50;;;90.47;;
18267;SDS011;9260;49.998;19.880;2022-08-30T05:00:45;223.13;;;86.83;;
18267;SDS011;9260;49.998;19.880;2022-08-30T05:10:50;230.37;;;91.47;;
18267;SDS011;9260;49.998;19.880;2022-08-30T05:21:01;237.33;;;93.57;;
18267;SDS011;9260;49.998;19.880;2022-08-30T05:31:12;230.70;;;90.47;;
18267;SDS011;9260;49.998;19.880;2022-08-30T05:41:19;236.60;;;92.40;;
18267;SDS011;9260;49.998;19.880;2022-08-30T05:51:29;241.07;;;95.77;;
18267;SDS011;9260;49.998;19.880;2022-08-30T06:01:36;240.93;;;97.90;;
18267;SDS011;9260;49.998;19.880;2022-08-30T06:11:43;245.30;;;114.63;;
18267;SDS011;9260;49.998;19.880;2022-08-30T06:21:48;234.20;;;102.33;;
18267;SDS011;9260;49.998;19.880;2022-08-30T06:31:55;240.73;;;102.97;;
18267;SDS011;9260;49.998;19.880;2022-08-30T06:41:59;240.53;;;108.10;;
18267;SDS011;9260;49.998;19.880;2022-08-30T06:52:07;229.93;;;107.30;;
18267;SDS011;9260;49.998;19.880;2022-08-30T07:02:11;235.97;;;112.73;;
18267;SDS011;9260;49.998;19.880;2022-08-30T07:12:16;236.63;;;115.23;;
18267;SDS011;9260;49.998;19.880;2022-08-30T07:22:19;233.43;;;117.63;;
18267;SDS011;9260;49.998;19.880;2022-08-30T07:32:25;242.27;;;119.93;;
18267;SDS011;9260;49.998;19.880;2022-08-30T07:42:29;240.25;;;126.38;;
18267;SDS011;9260;49.998;19.880;2022-08-30T07:52:34;240.05;;;123.45;;
18267;SDS011;9260;49.998;19.880;2022-08-30T08:02:38;248.20;;;132.15;;
18267;SDS011;9260;49.998;19.880;2022-08-30T08:12:44;245.63;;;138.07;;
18267;SDS011;9260;49.998;19.880;2022-08-30T08:22:48;238.60;;;134.88;;
18267;SDS011;9260;49.998;19.880;2022-08-30T08:32:53;248.25;;;141.82;;
18267;SDS011;9260;49.998;19.880;2022-08-30T08:43:00;249.85;;;145.77;;
18267;SDS011;9260;49.998;19.880;2022-08-30T08:53:10;252.02;;;137.73;;
18267;SDS011;9260;49.998;19.880;2022-08-30T09:03:47;249.70;;;138.32;;
18267;SDS011;9260;49.998;19.880;2022-08-30T09:13:53;249.00;;;146.57;;
18267;SDS011;9260;49.998;19.880;2022-08-30T09:23:58;255.30;;;166.15;;
18267;SDS011;9260;49.998;19.880;2022-08-30T09:34:07;223.75;;;150.98;;
18267;SDS011;9260;49.998;19.880;2022-08-30T09:44:19;233.30;;;166.73;;
18267;SDS011;9260;49.998;19.880;2022-08-30T09:54:29;228.45;;;153.18;;
18267;SDS011;9260;49.998;19.880;2022-08-30T10:04:39;226.85;;;147.00;;
18267;SDS011;9260;49.998;19.880;2022-08-30T10:14:56;218.57;;;155.63;;
18267;SDS011;9260;49.998;19.880;2022-08-30T10:25:09;199.38;;;150.90;;
18267;SDS011;9260;49.998;19.880;2022-08-30T10:35:18;202.18;;;154.77;;
18267;SDS011;9260;49.998;19.880;2022-08-30T10:45:26;203.75;;;154.20;;
18267;SDS011;9260;49.998;19.880;2022-08-30T10:55:39;200.35;;;148.88;;
18267;SDS011;9260;49.998;19.880;2022-08-30T11:05:55;207.20;;;157.13;;
18267;SDS011;9260;49.998;19.880;2022-08-30T11:16:35;206.60;;;148.57;;
18267;SDS011;9260;49.998;19.880;2022-08-30T11:26:57;202.75;;;149.50;;
18267;SDS011;9260;49.998;19.880;2022-08-30T11:37:04;209.38;;;147.27;;
18267;SDS011;9260;49.998;19.880;2022-08-30T11:57:51;210.23;;;163.80;;
18267;SDS011;9260;49.998;19.880;2022-08-30T12:08:03;188.32;;;149.82;;
18267;SDS011;9260;49.998;19.880;2022-08-30T12:18:10;198.63;;;162.38;;
18267;SDS011;9260;49.998;19.880;2022-08-30T12:28:31;200.55;;;146.57;;
18267;SDS011;9260;49.998;19.880;2022-08-30T12:38:36;199.48;;;146.65;;
18267;SDS011;9260;49.998;19.880;2022-08-30T12:48:39;191.68;;;150.50;;
18267;SDS011;9260;49.998;19.880;2022-08-30T12:58:46;195.27;;;146.80;;
18267;SDS011;9260;49.998;19.880;2022-08-30T13:08:51;201.65;;;139.75;;
18267;SDS011;9260;49.998;19.880;2022-08-30T13:19:15;213.38;;;136.90;;
18267;SDS011;9260;49.998;19.880;2022-08-30T13:29:29;223.90;;;133.32;;
18267;SDS011;9260;49.998;19.880;2022-08-30T13:39:34;220.85;;;129.38;;
18267;SDS011;9260;49.998;19.880;2022-08-30T13:49:40;230.95;;;134.23;;
18267;SDS011;9260;49.998;19.880;2022-08-30T13:59:47;224.00;;;127.38;;
18267;SDS011;9260;49.998;19.880;2022-08-30T14:09:51;235.93;;;129.57;;
18267;SDS011;9260;49.998;19.880;2022-08-30T14:20:16;229.75;;;126.65;;
18267;SDS011;9260;49.998;19.880;2022-08-30T14:30:20;235.15;;;134.30;;
18267;SDS011;9260;49.998;19.880;2022-08-30T14:40:25;228.98;;;123.65;;
18267;SDS011;9260;49.998;19.880;2022-08-30T14:50:28;247.63;;;127.32;;
18267;SDS011;9260;49.998;19.880;2022-08-30T15:00:33;266.40;;;123.50;;
18267;SDS011;9260;49.998;19.880;2022-08-30T15:10:39;241.65;;;122.28;;
18267;SDS011;9260;49.998;19.880;2022-08-30T15:20:45;235.60;;;122.63;;
18267;SDS011;9260;49.998;19.880;2022-08-30T15:30:49;247.00;;;131.95;;
18267;SDS011;9260;49.998;19.880;2022-08-30T15:40:54;243.15;;;130.35;;
18267;SDS011;9260;49.998;19.880;2022-08-30T15:51:02;239.70;;;122.70;;
18267;SDS011;9260;49.998;19.880;2022-08-30T16:01:12;238.27;;;119.23;;
18267;SDS011;9260;49.998;19.880;2022-08-30T16:11:19;239.30;;;114.13;;
18267;SDS011;9260;49.998;19.880;2022-08-30T16:21:27;235.17;;;111.47;;
18267;SDS011;9260;49.998;19.880;2022-08-30T16:31:33;241.77;;;123.97;;
18267;SDS011;9260;49.998;19.880;2022-08-30T16:41:39;246.70;;;122.70;;
18267;SDS011;9260;49.998;19.880;2022-08-30T16:51:46;239.03;;;110.07;;
18267;SDS011;9260;49.998;19.880;2022-08-30T17:01:51;280.63;;;116.05;;
18267;SDS011;9260;49.998;19.880;2022-08-30T17:11:57;240.90;;;105.30;;
18267;SDS011;9260;49.998;19.880;2022-08-30T17:22:05;231.73;;;103.03;;
18267;SDS011;9260;49.998;19.880;2022-08-30T17:32:09;241.73;;;105.50;;
18267;SDS011;9260;49.998;19.880;2022-08-30T17:42:14;239.47;;;103.10;;
18267;SDS011;9260;49.998;19.880;2022-08-30T17:52:17;239.50;;;105.20;;
18267;SDS011;9260;49.998;19.880;2022-08-30T18:02:22;241.70;;;102.83;;
18267;SDS011;9260;49.998;19.880;2022-08-30T18:12:30;232.97;;;100.30;;
18267;SDS011;9260;49.998;19.880;2022-08-30T18:22:36;233.67;;;100.30;;
18267;SDS011;9260;49.998;19.880;2022-08-30T18:32:40;228.53;;;98.00;;
18267;SDS011;9260;49.998;19.880;2022-08-30T18:42:45;228.80;;;99.60;;
18267;SDS011;9260;49.998;19.880;2022-08-30T18:52:49;231.57;;;102.10;;
18267;SDS011;9260;49.998;19.880;2022-08-30T19:02:57;237.00;;;104.70;;
18267;SDS011;9260;49.998;19.880;2022-08-30T19:13:03;239.53;;;102.53;;
18267;SDS011;9260;49.998;19.880;2022-08-30T19:23:08;249.03;;;108.20;;
18267;SDS011;9260;49.998;19.880;2022-08-30T19:33:11;246.97;;;111.87;;
18267;SDS011;9260;49.998;19.880;2022-08-30T19:43:17;240.17;;;99.63;;
18267;SDS011;9260;49.998;19.880;2022-08-30T19:53:21;236.57;;;100.07;;
18267;SDS011;9260;49.998;19.880;2022-08-30T20:03:26;238.73;;;99.47;;
18267;SDS011;9260;49.998;19.880;2022-08-30T20:13:30;240.17;;;102.23;;
18267;SDS011;9260;49.998;19.880;2022-08-30T20:23:36;234.07;;;103.27;;
18267;SDS011;9260;49.998;19.880;2022-08-30T20:33:41;236.37;;;100.43;;
18267;SDS011;9260;49.998;19.880;2022-08-30T20:43:46;231.73;;;96.93;;
18267;SDS011;9260;49.998;19.880;2022-08-30T20:53:51;237.03;;;99.83;;
18267;SDS011;9260;49.998;19.880;2022-08-30T21:03:56;234.97;;;96.23;;
18267;SDS011;9260;49.998;19.880;2022-08-30T21:14:01;233.37;;;98.27;;
18267;SDS011;9260;49.998;19.880;2022-08-30T21:24:07;235.00;;;96.73;;
18267;SDS011;9260;49.998;19.880;2022-08-30T21:34:11;241.30;;;103.10;;
18267;SDS011;9260;49.998;19.880;2022-08-30T21:44:20;238.83;;;95.43;;
18267;SDS011;9260;49.998;19.880;2022-08-30T21:54:27;232.90;;;95.10;;
18267;SDS011;9260;49.998;19.880;2022-08-30T22:04:33;231.77;;;93.10;;
18267;SDS011;9260;49.998;19.880;2022-08-30T22:14:38;234.63;;;94.10;;
18267;SDS011;9260;49.998;19.880;2022-08-30T22:24:43;235.53;;;96.80;;
18267;SDS011;9260;49.998;19.880;2022-08-30T22:34:47;232.40;;;94.30;;
18267;SDS011;9260;49.998;19.880;2022-08-30T22:44:52;234.17;;;95.43;;
18267;SDS011;9260;49.998;19.880;2022-08-30T22:54:56;234.27;;;93.63;;
18267;SDS011;9260;49.998;19.880;2022-08-30T23:05:02;245.83;;;93.40;;
18267;SDS011;9260;49.998;19.880;2022-08-30T23:15:08;242.30;;;110.47;;
18267;SDS011;9260;49.998;19.880;2022-08-30T23:25:16;235.90;;;93.73;;
18267;SDS011;9260;49.998;19.880;2022-08-30T23:35:44;233.53;;;93.43;;
18267;SDS011;9260;49.998;19.880;2022-08-30T23:46:07;232.27;;;91.50;;
18267;SDS011;9260;49.998;19.880;2022-08-30T23:56:28;231.00;;;92.87;;
